»·PEaware :: N63PL KSNA-KBUR

N63PL :: KSNA-KBUR

FLIGHT INFORMATION

Flight Status: Arrived
Operator: Privately registered:
United States
More flights under this callsign
Pilot: Brian W. (18045)
Aircraft: CESSNA 172 SKYHAWK
(C172)
More flights by this aircraft type
Origin: KSNA John Wayne-Orange Co
United States
Destination: KBUR Bob Hope-Burbank
United States
More flights between these airports :: More routes between these airports
Route: +SLI V23 POPPR SMO125R SMO SMO311R SILEX
File this flight plan on PilotEdge
Remarks: I-3 rating
Altitude:
(Current/Filed)
4,000ft
Speed:
(Current/Filed)
115kts
Departed: 19-Jan-19 06:56 PM
Arrived: 19-Jan-19 07:50 PM
Distance/Time
Traveled:
40nm/0:54
Distance/Time
To Go:
Arrived

Flight Plot

Page will automatically refresh every two minutes.


Map Options




Map Legend


Flown Route
Filed Route
Departure Airport
Arrival Airport
Navaid (VOR, NDB)
Fix

Horizontal Profiles

Position Reports

Time Latitude Longitude Heading Altitude Ground
Speed
19-Jan-19 18:33 33.676205 -117.871104 212 60ft 0kts
19-Jan-19 18:34 33.676205 -117.871104 212 60ft 0kts
19-Jan-19 18:35 33.676205 -117.871104 212 60ft 0kts
19-Jan-19 18:36 33.676205 -117.871104 212 60ft 0kts
19-Jan-19 18:37 33.676205 -117.871104 212 60ft 0kts
19-Jan-19 18:38 33.676205 -117.871104 212 60ft 0kts
19-Jan-19 18:39 33.676205 -117.871104 212 60ft 0kts
19-Jan-19 18:40 33.676205 -117.871104 212 60ft 0kts
19-Jan-19 18:41 33.676205 -117.871104 212 60ft 0kts
19-Jan-19 18:42 33.676205 -117.871104 212 60ft 0kts
19-Jan-19 18:43 33.676205 -117.871104 212 60ft 0kts
19-Jan-19 18:44 33.676205 -117.871104 212 60ft 0kts
19-Jan-19 18:45 33.676205 -117.871104 212 60ft 0kts
19-Jan-19 18:46 33.676205 -117.871104 212 60ft 0kts
19-Jan-19 18:47 33.676205 -117.871104 212 60ft 0kts
19-Jan-19 18:48 33.676205 -117.871104 212 60ft 0kts
19-Jan-19 18:49 33.676205 -117.871104 212 60ft 0kts
19-Jan-19 18:50 33.677296 -117.869312 29 60ft 17kts
19-Jan-19 18:51 33.680640 -117.867365 27 60ft 5kts
19-Jan-19 18:52 33.681185 -117.866441 112 60ft 0kts
19-Jan-19 18:53 33.681166 -117.866392 115 60ft 0kts
19-Jan-19 18:54 33.681166 -117.866392 115 60ft 0kts
19-Jan-19 18:55 33.674917 -117.869339 209 108ft 80kts
19-Jan-19 18:56 33.658300 -117.884123 229 1016ft 82kts
19-Jan-19 18:57 33.641988 -117.907186 230 1732ft 96kts
19-Jan-19 18:58 33.622449 -117.934497 230 1997ft 123kts
19-Jan-19 18:59 33.614859 -117.968264 299 1995ft 116kts
19-Jan-19 19:00 33.628856 -117.996395 300 2622ft 82kts
19-Jan-19 19:01 33.638251 -118.015849 303 3242ft 51kts
19-Jan-19 19:02 33.649534 -118.030256 301 3595ft 55kts
19-Jan-19 19:03 33.658442 -118.049608 300 3983ft 92kts
19-Jan-19 19:04 33.673293 -118.080922 301 3990ft 113kts
19-Jan-19 19:05 33.689057 -118.114255 301 3994ft 115kts
19-Jan-19 19:06 33.705180 -118.148131 301 3998ft 117kts
19-Jan-19 19:07 33.724594 -118.179596 312 4000ft 117kts
19-Jan-19 19:08 33.747740 -118.205895 330 4001ft 117kts
19-Jan-19 19:09 33.772763 -118.230190 315 4000ft 116kts
19-Jan-19 19:10 33.797845 -118.254984 321 4002ft 117kts
19-Jan-19 19:11 33.823791 -118.278674 322 4004ft 117kts
19-Jan-19 19:12 33.849681 -118.302515 320 4005ft 117kts
19-Jan-19 19:13 33.874858 -118.327490 319 4007ft 117kts
19-Jan-19 19:14 33.899995 -118.352701 318 4007ft 117kts
19-Jan-19 19:15 33.925216 -118.378030 318 4007ft 118kts
19-Jan-19 19:16 33.950548 -118.403490 319 4003ft 119kts
19-Jan-19 19:17 33.975992 -118.429075 319 4001ft 119kts
19-Jan-19 19:18 34.001354 -118.454607 318 4000ft 119kts
19-Jan-19 19:19 34.027670 -118.478971 323 3999ft 120kts
19-Jan-19 19:20 34.055477 -118.501688 324 3999ft 121kts
19-Jan-19 19:21 34.083423 -118.524358 324 3999ft 121kts
19-Jan-19 19:22 34.111613 -118.547228 324 3999ft 121kts
19-Jan-19 19:23 34.139394 -118.569792 323 4001ft 119kts
19-Jan-19 19:24 34.166728 -118.592015 324 4003ft 117kts
19-Jan-19 19:25 34.195354 -118.578370 57 3637ft 132kts
19-Jan-19 19:26 34.200075 -118.536282 115 3078ft 137kts
19-Jan-19 19:27 34.195153 -118.494615 81 3048ft 108kts
19-Jan-19 19:28 34.199724 -118.456994 100 2396ft 105kts
19-Jan-19 19:29 34.193266 -118.423053 96 1594ft 114kts
19-Jan-19 19:30 34.192612 -118.385073 110 2070ft 119kts
19-Jan-19 19:31 34.172496 -118.387170 220 3222ft 73kts
19-Jan-19 19:32 34.155696 -118.401375 219 3943ft 76kts
19-Jan-19 19:33 34.134392 -118.422129 222 3928ft 115kts
19-Jan-19 19:34 34.131227 -118.455324 273 4006ft 106kts
19-Jan-19 19:35 34.132860 -118.491615 273 3997ft 108kts
19-Jan-19 19:36 34.134824 -118.528008 273 3996ft 108kts
19-Jan-19 19:37 34.137020 -118.564433 273 3996ft 108kts
19-Jan-19 19:38 34.139111 -118.600845 273 3998ft 109kts
19-Jan-19 19:39 34.142663 -118.636992 308 3997ft 110kts
19-Jan-19 19:40 34.172477 -118.644289 359 3999ft 112kts
19-Jan-19 19:41 34.190541 -118.614118 62 4001ft 117kts
19-Jan-19 19:42 34.200880 -118.576862 94 3919ft 123kts
19-Jan-19 19:43 34.198106 -118.541346 90 3777ft 108kts
19-Jan-19 19:44 34.198141 -118.506077 89 2984ft 105kts
19-Jan-19 19:45 34.199037 -118.472837 88 2321ft 96kts
19-Jan-19 19:46 34.197995 -118.441274 85 1961ft 97kts
19-Jan-19 19:47 34.197995 -118.408450 85 1496ft 93kts
19-Jan-19 19:48 34.197945 -118.378693 85 932ft 89kts
19-Jan-19 19:49 34.197783 -118.355591 90 706ft 37kts
19-Jan-19 19:50 34.198592 -118.351708 46 696ft 0kts
19-Jan-19 19:51 34.198592 -118.351708 46 696ft 0kts
19-Jan-19 19:52 34.198846 -118.354316 272 704ft 18kts
19-Jan-19 19:53 34.198912 -118.358054 288 714ft 1kts
19-Jan-19 19:54 34.200408 -118.359530 345 723ft 0kts
19-Jan-19 19:55 34.200408 -118.359530 345 723ft 0kts

Navigation Log

Ident Type
Flight plan parsing failed, navigation log unavailable